Time;durP1;ratioP1;P1;durP2;ratioP2;P2;SDS_P1;SDS_P2;PMS_P1;PMS_P2;Temp;Humidity;BMP_temperature;BMP_pressure;BME280_temperature;BME280_humidity;BME280_pressure;Samples;Min_cycle;Max_cycle;Signal;HPM_P1;HPM_P2
2023/05/02 00:00:50;;;;;;;40.80;17.50;;;;;;;7.08;100.00;99980.89;105868;1257;61191;-69
2023/05/02 00:03:17;;;;;;;30.50;13.60;;;;;;;7.10;100.00;99979.06;105992;1256;75288;-75
2023/05/02 00:05:44;;;;;;;22.60;12.20;;;;;;;7.16;99.50;99981.47;105994;1257;68963;-71
2023/05/02 00:08:11;;;;;;;21.00;13.20;;;;;;;7.13;98.20;99983.84;106000;1264;73714;-72
2023/05/02 00:10:38;;;;;;;30.20;14.00;;;;;;;7.25;95.54;99987.54;106080;1256;61164;-72
2023/05/02 00:13:05;;;;;;;20.10;11.10;;;;;;;7.21;94.63;99986.59;106001;1255;61212;-72
2023/05/02 00:15:33;;;;;;;25.10;12.60;;;;;;;7.26;93.15;99988.71;105876;1259;74560;-69
2023/05/02 00:18:00;;;;;;;30.50;13.10;;;;;;;7.42;91.27;99990.19;105836;1256;69400;-71
2023/05/02 00:20:27;;;;;;;34.60;14.40;;;;;;;7.31;91.13;99990.45;106103;1257;72310;-71
2023/05/02 00:22:56;;;;;;;37.20;14.80;;;;;;;7.38;89.58;99990.40;106037;1257;62289;-73
2023/05/02 00:25:23;;;;;;;44.90;17.50;;;;;;;7.28;90.07;99992.14;106128;1257;61222;-72
2023/05/02 00:27:50;;;;;;;50.20;22.90;;;;;;;7.20;91.10;99994.27;105986;1257;74686;-73
2023/05/02 00:30:17;;;;;;;31.90;15.40;;;;;;;7.02;92.75;99991.16;106016;1255;67877;-72
2023/05/02 00:32:44;;;;;;;24.70;13.90;;;;;;;7.02;91.75;99994.12;105606;1253;72730;-71
2023/05/02 00:35:11;;;;;;;24.30;11.60;;;;;;;7.16;89.74;100001.01;105889;1254;62261;-72
2023/05/02 00:37:38;;;;;;;24.00;11.60;;;;;;;7.26;87.85;100007.44;105731;1258;61337;-74
2023/05/02 00:40:06;;;;;;;20.20;11.30;;;;;;;7.33;86.89;100012.10;106521;1260;75194;-72
2023/05/02 00:42:35;;;;;;;24.30;12.90;;;;;;;7.26;86.09;100012.78;107476;1260;69501;-74
2023/05/02 00:45:05;;;;;;;20.20;10.50;;;;;;;7.37;85.07;100018.02;106130;1264;71899;-73
2023/05/02 00:47:33;;;;;;;17.70;8.70;;;;;;;7.45;83.51;100021.55;105784;1255;62166;-75
2023/05/02 00:50:01;;;;;;;18.20;9.60;;;;;;;7.64;80.81;100026.23;105814;1254;61223;-70
2023/05/02 00:52:28;;;;;;;20.50;12.40;;;;;;;7.75;78.93;100025.98;105903;1257;74580;-71
2023/05/02 00:54:56;;;;;;;25.90;11.10;;;;;;;7.81;77.59;100028.06;105733;1260;68626;-70
2023/05/02 00:57:24;;;;;;;28.20;11.50;;;;;;;7.78;77.31;100026.31;105889;1266;73615;-73
2023/05/02 00:59:51;;;;;;;18.90;10.80;;;;;;;7.76;76.40;100025.85;106042;1254;61567;-73
2023/05/02 01:02:39;;;;;;;26.60;11.80;;;;;;;7.76;75.46;100028.90;105673;1260;61265;-72
2023/05/02 01:05:44;;;;;;;34.40;12.90;;;;;;;7.77;74.70;100027.36;106018;1257;75744;-69
2023/05/02 01:08:39;;;;;;;38.10;12.60;;;;;;;7.62;76.41;100028.81;105328;1260;68826;-72
2023/05/02 01:11:17;;;;;;;24.60;12.50;;;;;;;7.81;75.16;100032.08;105125;1265;73486;-73
2023/05/02 01:13:44;;;;;;;45.20;22.00;;;;;;;7.91;73.89;100033.06;105230;1266;61314;-76
2023/05/02 01:16:12;;;;;;;38.30;20.00;;;;;;;7.17;78.75;100032.59;105243;1265;61328;-71
2023/05/02 01:18:40;;;;;;;28.70;14.30;;;;;;;7.14;78.18;100027.27;105320;1266;74919;-72
2023/05/02 01:21:08;;;;;;;22.60;11.60;;;;;;;7.00;79.97;100022.34;105234;1266;68682;-72
2023/05/02 01:24:01;;;;;;;25.60;12.40;;;;;;;6.97;80.15;100024.17;105126;1266;71563;-72
2023/05/02 01:26:33;;;;;;;21.00;11.50;;;;;;;5.53;91.26;100022.71;104953;1266;61245;-71
2023/05/02 01:29:07;;;;;;;23.40;11.20;;;;;;;6.15;89.86;100024.73;105370;1266;61261;-72
2023/05/02 01:31:36;;;;;;;25.30;12.20;;;;;;;6.35;85.80;100026.02;105269;1264;74052;-70
2023/05/02 01:34:04;;;;;;;16.30;9.80;;;;;;;6.37;85.18;100029.55;105195;1264;68668;-71
2023/05/02 01:36:31;;;;;;;15.60;8.90;;;;;;;6.45;84.68;100027.60;105203;1262;70662;-68
2023/05/02 01:38:59;;;;;;;23.40;9.50;;;;;;;6.50;84.41;100029.50;105314;1264;61289;-69
2023/05/02 01:41:27;;;;;;;19.00;9.70;;;;;;;6.57;83.24;100032.73;105167;1265;61280;-73
2023/05/02 01:43:56;;;;;;;19.90;8.70;;;;;;;6.47;83.12;100029.31;105594;1263;74697;-71
2023/05/02 01:46:25;;;;;;;15.00;8.80;;;;;;;6.47;83.29;100026.65;105861;1255;69775;-72
2023/05/02 01:48:52;;;;;;;16.50;8.80;;;;;;;6.62;82.05;100029.13;105898;1253;72593;-71
2023/05/02 01:51:19;;;;;;;20.00;8.90;;;;;;;6.63;81.48;100031.55;105632;1254;62337;-73
2023/05/02 01:53:47;;;;;;;19.10;8.90;;;;;;;6.71;79.83;100029.48;105735;1254;61625;-69
2023/05/02 01:56:16;;;;;;;21.90;10.10;;;;;;;6.83;78.47;100030.88;105868;1257;75570;-71
2023/05/02 01:58:43;;;;;;;16.10;10.00;;;;;;;6.83;77.76;100031.56;105835;1255;69138;-70
2023/05/02 02:01:10;;;;;;;20.40;9.70;;;;;;;6.86;76.89;100031.09;105798;1258;73390;-71
2023/05/02 02:03:37;;;;;;;20.70;10.30;;;;;;;6.93;76.44;100026.27;105876;1265;61398;-72
2023/05/02 02:06:04;;;;;;;26.50;14.00;;;;;;;7.03;76.17;100025.04;105881;1254;61298;-71
2023/05/02 02:08:31;;;;;;;37.60;20.50;;;;;;;7.01;77.71;100023.78;105665;1258;74582;-74
2023/05/02 02:10:59;;;;;;;35.40;14.70;;;;;;;7.11;77.59;100030.27;105890;1256;69002;-73
2023/05/02 02:13:32;;;;;;;22.10;11.60;;;;;;;7.19;76.66;100029.66;105936;1254;72821;-71
2023/05/02 02:16:01;;;;;;;25.70;13.10;;;;;;;7.38;74.98;100029.80;106032;1257;61204;-67
2023/05/02 02:18:28;;;;;;;23.00;12.40;;;;;;;7.44;74.03;100028.91;105901;1256;61138;-76
2023/05/02 02:20:56;;;;;;;26.40;14.60;;;;;;;5.33;89.36;100020.73;105691;1257;75026;-72
2023/05/02 02:23:25;;;;;;;36.90;15.60;;;;;;;5.64;89.30;100021.04;105623;1260;69797;-72
2023/05/02 02:25:52;;;;;;;41.00;16.10;;;;;;;4.94;98.14;100019.45;105781;1254;70740;-72
2023/05/02 02:28:19;;;;;;;36.70;15.90;;;;;;;6.28;86.42;100029.59;105696;1259;61535;-71
2023/05/02 02:30:46;;;;;;;33.20;16.00;;;;;;;6.49;83.87;100030.00;105667;1255;62242;-71
2023/05/02 02:33:13;;;;;;;22.80;15.50;;;;;;;6.76;81.19;100032.52;105711;1259;75587;-73
2023/05/02 02:35:42;;;;;;;27.00;13.70;;;;;;;5.82;86.76;100031.45;105693;1260;69594;-72
2023/05/02 02:38:33;;;;;;;22.30;12.90;;;;;;;5.02;95.55;100024.93;105911;1263;72073;-72
2023/05/02 02:41:10;;;;;;;20.00;11.90;;;;;;;4.30;100.00;100019.09;105627;1257;61288;-73
2023/05/02 02:43:43;;;;;;;21.10;12.40;;;;;;;4.21;100.00;100014.61;105905;1254;61338;-74
2023/05/02 02:46:33;;;;;;;20.00;11.90;;;;;;;4.50;100.00;100019.77;106014;1257;75738;-72
2023/05/02 02:49:13;;;;;;;26.30;12.10;;;;;;;4.38;100.00;100020.86;105633;1260;67954;-69
2023/05/02 02:51:45;;;;;;;35.90;17.00;;;;;;;4.33;100.00;100026.66;105732;1257;73305;-71
2023/05/02 02:54:19;;;;;;;24.50;12.20;;;;;;;5.85;94.36;100034.68;105696;1253;61567;-71
2023/05/02 02:57:01;;;;;;;24.80;12.70;;;;;;;6.41;85.67;100041.29;105646;1260;61186;-69
2023/05/02 02:59:33;;;;;;;16.30;9.50;;;;;;;5.49;92.33;100034.63;105715;1256;75026;-70
2023/05/02 03:02:07;;;;;;;15.20;10.60;;;;;;;4.84;99.95;100031.26;105689;1260;68242;-72
2023/05/02 03:04:38;;;;;;;14.00;9.70;;;;;;;4.95;100.00;100032.70;105630;1255;72867;-72
2023/05/02 03:07:05;;;;;;;17.10;9.10;;;;;;;5.39;97.49;100037.98;105920;1258;61116;-73
2023/05/02 03:09:45;;;;;;;21.40;11.00;;;;;;;6.39;87.07;100044.65;105975;1253;61294;-72
2023/05/02 03:12:16;;;;;;;18.00;10.00;;;;;;;5.78;92.93;100043.89;105895;1254;75062;-73
2023/05/02 03:14:43;;;;;;;14.20;8.50;;;;;;;5.84;93.70;100044.70;105941;1254;69407;-72
2023/05/02 03:17:11;;;;;;;23.40;9.50;;;;;;;6.07;91.17;100045.77;106054;1257;72443;-72
2023/05/02 03:19:37;;;;;;;16.30;7.60;;;;;;;6.20;89.95;100050.87;105857;1254;61336;-71
2023/05/02 03:22:05;;;;;;;18.20;8.80;;;;;;;6.37;87.59;100050.30;105876;1254;61674;-70
2023/05/02 03:24:33;;;;;;;19.40;9.00;;;;;;;6.59;86.73;100055.16;105854;1257;74722;-73
2023/05/02 03:27:00;;;;;;;13.70;7.60;;;;;;;6.77;85.36;100050.59;105667;1258;68778;-72
2023/05/02 03:29:30;;;;;;;13.50;8.60;;;;;;;7.30;79.87;100054.77;105882;1257;72803;-72
2023/05/02 03:31:57;;;;;;;19.10;8.50;;;;;;;7.73;73.85;100050.86;105953;1254;61370;-73
2023/05/02 03:34:24;;;;;;;21.90;7.60;;;;;;;7.90;72.65;100057.72;105592;1255;61299;-72
2023/05/02 03:36:51;;;;;;;13.50;7.60;;;;;;;7.71;73.53;100056.50;105607;1257;74674;-71
2023/05/02 03:39:19;;;;;;;14.30;7.80;;;;;;;7.65;73.47;100058.23;105715;1254;68835;-72
2023/05/02 03:41:47;;;;;;;17.80;7.80;;;;;;;8.14;70.09;100062.73;106089;1253;73343;-72
2023/05/02 03:44:16;;;;;;;16.00;7.30;;;;;;;7.77;70.54;100066.59;107589;1253;61132;-73
2023/05/02 03:46:43;;;;;;;10.00;6.20;;;;;;;8.07;68.61;100067.52;106549;1254;61228;-74
2023/05/02 03:49:11;;;;;;;16.30;6.10;;;;;;;8.03;68.87;100066.29;105686;1254;74781;-73
2023/05/02 03:51:38;;;;;;;8.30;6.20;;;;;;;8.25;66.13;100066.55;105709;1257;68693;-75
2023/05/02 03:54:06;;;;;;;21.60;6.70;;;;;;;8.42;65.22;100074.02;106026;1257;72648;-74
2023/05/02 03:56:35;;;;;;;12.90;7.90;;;;;;;9.79;56.89;100082.77;105674;1255;61304;-75
2023/05/02 03:59:13;;;;;;;;;;;;;;;9.42;56.31;100085.90;105665;1253;61259;-78
2023/05/02 04:01:40;;;;;;;19.60;9.30;;;;;;;9.32;56.87;100087.88;105860;1257;74947;-71
2023/05/02 04:04:10;;;;;;;25.80;10.20;;;;;;;10.62;51.85;100099.02;105655;1254;69489;-72
2023/05/02 04:06:43;;;;;;;17.80;9.60;;;;;;;10.19;52.03;100098.98;106072;1254;72725;-72
2023/05/02 04:09:10;;;;;;;8.80;6.20;;;;;;;9.93;52.84;100096.13;105627;1259;61219;-70
2023/05/02 04:11:43;;;;;;;13.80;5.40;;;;;;;10.47;51.54;100103.38;105911;1254;61151;-72
2023/05/02 04:14:11;;;;;;;;;;;;;;;10.32;52.17;100102.70;106116;1254;72961;-73
2023/05/02 04:16:39;;;;;;;14.40;7.30;;;;;;;10.80;51.02;100101.30;106039;1254;69455;-74
2023/05/02 04:19:06;;;;;;;11.90;6.60;;;;;;;11.08;48.99;100109.23;105593;1255;72576;-71
2023/05/02 04:21:36;;;;;;;8.20;5.30;;;;;;;11.29;48.53;100105.92;105761;1254;62244;-72
2023/05/02 04:24:04;;;;;;;29.40;6.00;;;;;;;12.10;46.46;100104.48;105658;1255;61250;-72
2023/05/02 04:26:31;;;;;;;8.50;5.40;;;;;;;12.20;45.84;100105.46;105855;1253;73711;-78
2023/05/02 04:29:04;;;;;;;12.20;4.70;;;;;;;11.49;46.45;100103.58;105965;1256;68428;-72
2023/05/02 04:31:31;;;;;;;6.70;4.30;;;;;;;12.37;44.90;100109.45;105668;1258;72780;-72
2023/05/02 04:33:59;;;;;;;6.90;4.50;;;;;;;12.91;43.70;100110.69;105950;1254;61235;-70
2023/05/02 04:36:29;;;;;;;8.40;4.60;;;;;;;13.49;42.85;100119.08;105734;1254;61333;-73
2023/05/02 04:38:56;;;;;;;7.20;3.90;;;;;;;13.56;42.03;100117.10;106165;1254;75292;-72
2023/05/02 04:41:23;;;;;;;7.10;3.60;;;;;;;12.71;43.87;100114.86;105834;1259;68884;-73
2023/05/02 04:43:56;;;;;;;4.40;3.10;;;;;;;13.04;43.54;100114.80;106078;1257;73622;-73
2023/05/02 04:46:22;;;;;;;8.80;3.30;;;;;;;13.95;40.85;100120.67;106065;1256;61333;-73
2023/05/02 04:48:50;;;;;;;5.80;3.60;;;;;;;14.35;39.78;100121.67;106073;1254;61244;-75
2023/05/02 04:51:17;;;;;;;7.90;3.20;;;;;;;14.69;39.18;100127.42;106083;1252;73507;-75
2023/05/02 04:53:47;;;;;;;8.00;3.90;;;;;;;14.85;38.15;100124.06;105924;1254;68750;-72
2023/05/02 04:56:14;;;;;;;10.00;5.10;;;;;;;15.27;37.99;100128.02;106133;1254;73678;-73
2023/05/02 04:58:42;;;;;;;8.40;4.20;;;;;;;14.50;38.80;100121.67;105933;1257;62299;-72
2023/05/02 05:01:10;;;;;;;9.60;3.40;;;;;;;13.63;39.79;100116.36;106007;1257;61349;-71
2023/05/02 05:03:37;;;;;;;8.90;3.00;;;;;;;13.52;39.73;100119.95;105989;1256;75525;-72
2023/05/02 05:06:06;;;;;;;3.70;2.30;;;;;;;14.54;37.80;100126.44;106062;1254;69657;-73
2023/05/02 05:08:33;;;;;;;4.70;2.70;;;;;;;13.78;38.91;100123.95;105775;1256;72019;-73
2023/05/02 05:11:00;;;;;;;5.40;3.40;;;;;;;13.61;38.81;100125.73;105834;1254;61912;-73
2023/05/02 05:13:27;;;;;;;8.70;3.40;;;;;;;13.48;38.72;100121.70;105714;1254;61337;-73
2023/05/02 05:15:55;;;;;;;7.30;2.80;;;;;;;14.68;37.39;100129.99;105758;1254;74496;-73
2023/05/02 05:18:25;;;;;;;6.50;3.00;;;;;;;15.07;36.73;100137.98;105844;1254;68642;-77
2023/05/02 05:20:52;;;;;;;3.60;3.20;;;;;;;15.18;36.26;100138.63;106025;1257;72635;-71
2023/05/02 05:23:19;;;;;;;12.00;4.30;;;;;;;15.66;36.20;100139.39;105811;1254;62370;-69
2023/05/02 05:25:46;;;;;;;9.20;4.30;;;;;;;15.91;35.59;100138.86;105562;1260;61470;-71
2023/05/02 05:28:17;;;;;;;8.60;3.40;;;;;;;16.08;35.57;100145.30;105628;1254;74811;-74
2023/05/02 05:30:44;;;;;;;19.00;5.30;;;;;;;16.09;35.32;100143.52;105726;1259;69599;-75
2023/05/02 05:33:14;;;;;;;22.90;9.80;;;;;;;16.33;35.07;100151.77;105568;1254;72432;-72
2023/05/02 05:35:42;;;;;;;12.00;3.70;;;;;;;16.76;34.29;100151.07;105623;1254;61460;-73
2023/05/02 05:38:09;;;;;;;3.70;2.60;;;;;;;16.64;33.79;100152.38;105678;1254;61420;-72
2023/05/02 05:40:38;;;;;;;7.50;3.10;;;;;;;16.64;34.00;100153.95;105977;1254;74750;-75
2023/05/02 05:43:07;;;;;;;12.70;3.30;;;;;;;16.81;33.92;100148.36;105926;1254;68322;-72
2023/05/02 05:45:36;;;;;;;4.50;2.90;;;;;;;17.11;33.17;100148.48;105638;1260;72972;-71
2023/05/02 05:48:05;;;;;;;3.10;2.50;;;;;;;17.25;32.98;100145.94;105891;1254;61300;-72
2023/05/02 05:50:37;;;;;;;8.50;2.90;;;;;;;17.69;33.01;100149.63;105915;1257;61174;-73
2023/05/02 05:53:04;;;;;;;10.10;3.10;;;;;;;17.92;32.29;100148.75;105950;1256;74806;-73
2023/05/02 05:55:31;;;;;;;7.60;2.90;;;;;;;18.29;31.84;100154.05;106031;1254;69154;-75
2023/05/02 05:57:59;;;;;;;6.90;2.50;;;;;;;18.24;31.16;100152.09;106003;1257;72539;-75
2023/05/02 06:00:26;;;;;;;7.30;3.20;;;;;;;17.89;31.04;100148.13;105966;1254;61313;-72
2023/05/02 06:02:53;;;;;;;6.20;2.10;;;;;;;15.88;33.74;100140.11;106028;1254;61216;-74
2023/05/02 06:05:32;;;;;;;6.30;2.10;;;;;;;15.39;34.69;100142.52;105789;1258;74439;-73
2023/05/02 06:07:59;;;;;;;7.40;2.30;;;;;;;15.37;34.98;100139.11;105909;1259;68854;-73
2023/05/02 06:10:26;;;;;;;7.10;3.40;;;;;;;15.61;35.02;100143.09;105779;1257;71630;-77
2023/05/02 06:12:53;;;;;;;9.60;2.00;;;;;;;15.84;35.08;100137.89;105789;1257;61327;-71
2023/05/02 06:15:24;;;;;;;3.20;2.40;;;;;;;15.53;34.74;100143.11;105962;1252;61354;-74
2023/05/02 06:17:51;;;;;;;6.90;2.50;;;;;;;15.82;34.62;100132.10;106070;1256;75725;-72
2023/05/02 06:20:18;;;;;;;7.50;2.50;;;;;;;16.10;34.71;100142.58;105973;1254;68779;-73
2023/05/02 06:22:45;;;;;;;2.80;1.80;;;;;;;16.09;34.29;100138.20;106078;1257;71488;-70
2023/05/02 06:25:12;;;;;;;3.00;2.70;;;;;;;16.01;34.15;100140.77;105920;1252;61243;-77
2023/05/02 06:27:39;;;;;;;14.20;2.80;;;;;;;16.34;34.59;100141.29;105762;1254;61231;-72
2023/05/02 06:30:07;;;;;;;8.20;2.70;;;;;;;17.21;32.71;100140.15;105608;1259;74765;-71
2023/05/02 06:32:35;;;;;;;6.70;2.50;;;;;;;16.79;32.57;100142.63;105627;1254;68723;-73
2023/05/02 06:35:02;;;;;;;9.60;2.10;;;;;;;16.43;32.44;100131.28;105892;1257;72853;-75
2023/05/02 06:37:34;;;;;;;6.30;2.10;;;;;;;16.12;32.91;100138.19;105814;1254;61346;-77
2023/05/02 06:40:01;;;;;;;3.50;2.40;;;;;;;16.09;33.36;100140.05;105863;1258;61298;-73
2023/05/02 06:42:29;;;;;;;4.40;2.00;;;;;;;17.32;32.01;100141.14;105723;1260;74463;-75
2023/05/02 06:44:56;;;;;;;4.20;1.90;;;;;;;18.28;31.24;100146.32;105670;1254;69501;-74
2023/05/02 06:47:24;;;;;;;4.70;2.20;;;;;;;18.43;30.23;100148.02;108139;1252;72541;-73
2023/05/02 06:49:54;;;;;;;5.90;2.30;;;;;;;18.28;30.54;100147.41;107404;1255;60162;-76
2023/05/02 06:52:21;;;;;;;18.50;3.80;;;;;;;18.73;30.91;100148.05;106040;1254;61244;-73
2023/05/02 06:54:48;;;;;;;5.10;2.40;;;;;;;18.92;30.28;100143.73;105927;1257;74524;-72
2023/05/02 06:57:15;;;;;;;4.60;3.10;;;;;;;19.04;30.02;100154.64;105763;1254;69689;-73
2023/05/02 06:59:42;;;;;;;4.40;2.70;;;;;;;19.04;29.82;100152.73;106054;1254;72678;-75
2023/05/02 07:02:10;;;;;;;17.80;3.70;;;;;;;18.68;30.17;100146.20;106099;1254;61238;-74
2023/05/02 07:04:36;;;;;;;7.90;2.40;;;;;;;19.07;29.68;100153.71;106180;1257;61231;-72
2023/05/02 07:07:04;;;;;;;7.70;2.30;;;;;;;19.20;29.58;100154.77;106084;1257;74876;-71
2023/05/02 07:09:31;;;;;;;4.80;1.80;;;;;;;19.43;29.29;100154.56;105542;1259;68809;-77
2023/05/02 07:11:59;;;;;;;7.00;2.50;;;;;;;19.39;28.89;100159.40;105932;1254;72985;-76
2023/05/02 07:14:28;;;;;;;4.70;1.90;;;;;;;19.71;28.85;100161.17;106193;1253;61229;-72
2023/05/02 07:16:54;;;;;;;9.10;2.50;;;;;;;19.82;28.60;100156.24;106024;1254;61746;-75
2023/05/02 07:19:21;;;;;;;4.90;2.10;;;;;;;19.98;28.26;100160.36;106175;1254;74465;-73
2023/05/02 07:21:48;;;;;;;7.60;2.10;;;;;;;20.26;28.09;100160.02;105821;1254;68489;-72
2023/05/02 07:24:15;;;;;;;6.80;2.30;;;;;;;20.15;27.92;100165.59;106079;1256;73810;-73
2023/05/02 07:26:42;;;;;;;6.50;2.00;;;;;;;19.72;27.92;100156.59;106094;1254;61227;-72
2023/05/02 07:29:09;;;;;;;4.90;2.10;;;;;;;20.33;27.81;100158.13;105713;1253;61334;-76
2023/05/02 07:31:36;;;;;;;7.20;2.10;;;;;;;20.37;28.06;100153.48;105915;1257;74718;-77
2023/05/02 07:34:03;;;;;;;8.90;2.30;;;;;;;20.37;27.62;100158.88;105964;1253;69123;-78
2023/05/02 07:36:31;;;;;;;11.50;2.20;;;;;;;20.39;27.60;100150.92;105833;1257;72687;-72
2023/05/02 07:38:58;;;;;;;4.30;2.70;;;;;;;20.61;27.41;100157.69;105966;1253;61246;-72
2023/05/02 07:41:25;;;;;;;4.10;2.00;;;;;;;20.75;27.62;100159.62;105884;1253;61296;-74
2023/05/02 07:43:52;;;;;;;4.00;2.00;;;;;;;20.86;27.31;100160.59;105773;1253;74432;-74
2023/05/02 07:46:19;;;;;;;4.70;2.40;;;;;;;20.67;27.27;100162.15;105744;1254;69761;-73
2023/05/02 07:48:46;;;;;;;7.50;2.60;;;;;;;18.89;29.55;100152.23;105915;1257;73359;-75
2023/05/02 07:51:13;;;;;;;4.60;2.10;;;;;;;18.71;29.29;100160.41;106152;1253;61215;-74
2023/05/02 07:53:40;;;;;;;13.00;10.10;;;;;;;18.93;29.01;100163.79;106088;1253;61357;-75
2023/05/02 07:56:07;;;;;;;11.00;3.60;;;;;;;18.70;29.36;100156.73;105998;1253;75570;-74
2023/05/02 07:58:35;;;;;;;3.70;2.50;;;;;;;19.08;28.93;100158.77;106153;1254;69119;-79
2023/05/02 08:01:03;;;;;;;6.30;2.20;;;;;;;20.11;27.67;100167.02;106238;1252;72172;-73
2023/05/02 08:03:30;;;;;;;3.00;2.30;;;;;;;19.91;27.27;100160.41;105836;1253;61327;-71
2023/05/02 08:05:57;;;;;;;6.90;2.60;;;;;;;18.63;28.99;100149.44;106105;1253;61249;-75
2023/05/02 08:08:24;;;;;;;5.90;2.00;;;;;;;18.81;29.56;100145.11;106202;1253;72782;-74
2023/05/02 08:10:50;;;;;;;6.80;2.10;;;;;;;18.86;29.46;100145.15;106154;1253;68666;-74
2023/05/02 08:13:18;;;;;;;3.30;1.70;;;;;;;20.11;28.19;100151.26;106189;1254;72698;-79
2023/05/02 08:15:44;;;;;;;9.80;2.80;;;;;;;20.76;26.92;100150.33;106102;1257;61272;-80
2023/05/02 08:18:11;;;;;;;4.10;1.80;;;;;;;20.99;26.68;100155.14;106023;1253;62362;-77
2023/05/02 08:20:38;;;;;;;5.90;2.10;;;;;;;21.13;26.80;100150.67;106131;1256;74708;-73
2023/05/02 08:23:05;;;;;;;2.80;1.40;;;;;;;21.38;26.51;100151.70;106156;1253;68498;-75
2023/05/02 08:25:32;;;;;;;12.30;2.10;;;;;;;21.01;26.97;100146.91;106200;1253;73524;-75
2023/05/02 08:27:58;;;;;;;3.90;2.30;;;;;;;21.49;26.37;100147.61;105866;1254;61369;-76
2023/05/02 08:30:25;;;;;;;4.30;2.30;;;;;;;21.15;25.68;100145.98;105912;1256;61144;-75
2023/05/02 08:32:52;;;;;;;5.60;2.30;;;;;;;21.23;25.60;100146.89;105837;1253;74510;-75
2023/05/02 08:35:20;;;;;;;6.10;2.10;;;;;;;21.26;25.76;100139.71;106044;1256;66825;-74
2023/05/02 08:37:46;;;;;;;6.10;2.10;;;;;;;21.03;25.80;100142.61;105976;1256;70717;-74
2023/05/02 08:40:13;;;;;;;7.30;2.30;;;;;;;20.73;25.40;100143.23;105902;1253;61323;-73
2023/05/02 08:42:42;;;;;;;5.50;2.50;;;;;;;21.10;25.46;100137.81;105715;1254;61333;-75
2023/05/02 08:45:10;;;;;;;3.40;1.60;;;;;;;21.50;25.79;100139.13;105940;1253;73723;-74
2023/05/02 08:47:37;;;;;;;;;;;;;;;21.15;25.16;100134.61;105883;1257;67807;-75
2023/05/02 08:50:05;;;;;;;4.40;1.80;;;;;;;20.78;24.89;100138.25;105851;1253;73500;-75
2023/05/02 08:52:33;;;;;;;9.60;2.20;;;;;;;21.07;25.47;100139.24;105850;1253;60269;-73
2023/05/02 08:55:00;;;;;;;3.50;1.70;;;;;;;21.48;25.25;100133.13;105834;1254;61379;-74
2023/05/02 08:57:30;;;;;;;7.20;1.80;;;;;;;21.54;25.35;100126.86;105877;1255;73475;-73
2023/05/02 08:59:57;;;;;;;4.60;2.00;;;;;;;21.77;24.77;100128.81;105790;1254;69663;-72
2023/05/02 09:02:54;;;;;;;5.30;2.20;;;;;;;21.87;24.57;100124.16;105719;1253;127990;-73
2023/05/02 09:05:22;;;;;;;5.20;2.00;;;;;;;21.40;24.59;100122.27;105373;1261;61274;-78
2023/05/02 09:07:50;;;;;;;4.20;1.60;;;;;;;20.09;26.69;100123.53;104966;1270;61357;-72
2023/05/02 09:10:17;;;;;;;7.50;2.30;;;;;;;19.99;26.05;100127.90;105372;1260;72818;-77
2023/05/02 09:12:45;;;;;;;7.10;1.70;;;;;;;19.62;26.29;100124.17;105285;1261;70036;-75
2023/05/02 09:15:15;;;;;;;4.60;2.20;;;;;;;19.71;26.63;100119.92;105038;1261;72271;-74
2023/05/02 09:17:47;;;;;;;5.00;1.90;;;;;;;20.02;26.55;100124.70;105285;1260;61494;-73
2023/05/02 09:20:15;;;;;;;6.90;1.80;;;;;;;19.98;26.66;100106.58;105139;1264;61276;-73
2023/05/02 09:22:49;;;;;;;5.40;2.20;;;;;;;19.63;26.54;100111.25;105349;1261;74424;-76
2023/05/02 09:25:17;;;;;;;2.70;1.70;;;;;;;19.56;26.42;100108.04;105193;1261;69273;-73
2023/05/02 09:27:54;;;;;;;11.80;2.30;;;;;;;19.85;25.77;100107.16;105339;1260;72805;-75
2023/05/02 09:30:23;;;;;;;4.70;1.30;;;;;;;21.26;24.49;100111.21;105139;1264;61444;-73
2023/05/02 09:32:50;;;;;;;6.30;2.20;;;;;;;21.37;24.57;100116.84;105283;1260;61333;-74
2023/05/02 09:35:27;;;;;;;20.40;3.30;;;;;;;21.44;24.94;100111.23;105169;1264;74752;-74
2023/05/02 09:37:56;;;;;;;2.70;1.80;;;;;;;21.95;24.35;100106.96;104925;1267;66695;-74
2023/05/02 09:40:24;;;;;;;5.80;2.80;;;;;;;22.07;24.33;100109.73;105178;1265;72634;-72
2023/05/02 09:42:51;;;;;;;10.70;2.50;;;;;;;22.03;24.20;100105.41;105537;1261;61383;-71
2023/05/02 09:45:22;;;;;;;6.50;1.90;;;;;;;21.23;24.73;100099.02;105942;1252;61348;-76
2023/05/02 09:47:49;;;;;;;5.10;2.30;;;;;;;21.57;24.53;100104.23;106062;1254;74393;-76
2023/05/02 09:50:43;;;;;;;4.20;1.70;;;;;;;21.84;24.05;100095.63;105809;1254;69870;-77
2023/05/02 09:53:10;;;;;;;2.70;1.80;;;;;;;21.82;24.30;100101.86;107070;1258;73621;-75
2023/05/02 09:55:38;;;;;;;4.30;1.60;;;;;;;21.68;24.08;100100.10;108510;1253;61227;-75
2023/05/02 09:58:05;;;;;;;3.10;1.70;;;;;;;22.14;23.76;100100.96;106195;1252;61141;-74
2023/05/02 10:00:42;;;;;;;4.40;1.90;;;;;;;22.55;23.73;100107.08;105827;1254;75333;-76
2023/05/02 10:03:09;;;;;;;4.20;1.90;;;;;;;22.84;23.22;100097.15;105966;1257;69143;-73
2023/05/02 10:05:37;;;;;;;7.90;2.10;;;;;;;22.94;22.63;100104.35;105892;1253;72452;-75
2023/05/02 10:08:05;;;;;;;;;;;;;;;22.43;23.17;100097.45;106042;1256;61336;-72
2023/05/02 10:10:33;;;;;;;10.30;2.90;;;;;;;22.08;23.56;100098.54;106031;1257;61248;-76
2023/05/02 10:13:01;;;;;;;3.10;2.20;;;;;;;22.14;24.07;100089.80;105709;1256;75347;-76
2023/05/02 10:15:28;;;;;;;3.90;2.90;;;;;;;21.95;24.20;100082.67;105856;1253;68733;-74
2023/05/02 10:17:55;;;;;;;3.00;1.90;;;;;;;22.02;23.89;100088.33;105854;1253;72506;-76
2023/05/02 10:20:22;;;;;;;4.20;2.10;;;;;;;22.15;23.51;100097.86;105742;1253;62220;-73
2023/05/02 10:22:49;;;;;;;14.50;1.90;;;;;;;22.47;22.73;100088.79;105797;1255;61294;-74
2023/05/02 10:25:16;;;;;;;9.60;2.60;;;;;;;22.46;22.98;100080.81;105845;1253;73420;-75
2023/05/02 10:27:43;;;;;;;9.70;1.90;;;;;;;22.66;22.82;100082.56;105973;1254;68803;-72
2023/05/02 10:30:11;;;;;;;9.80;2.50;;;;;;;22.53;23.65;100071.80;105806;1259;72717;-73
2023/05/02 10:32:39;;;;;;;4.10;1.90;;;;;;;22.41;23.79;100078.46;106067;1254;61335;-75
2023/05/02 10:35:07;;;;;;;2.60;1.60;;;;;;;22.73;23.83;100074.77;105850;1254;62060;-76
2023/05/02 10:37:35;;;;;;;6.30;1.40;;;;;;;22.86;23.01;100070.65;106070;1256;75249;-71
2023/05/02 10:40:02;;;;;;;5.90;1.60;;;;;;;22.66;23.19;100068.95;105947;1256;67819;-74
2023/05/02 10:42:29;;;;;;;3.10;1.70;;;;;;;22.95;23.67;100067.45;105826;1258;72585;-74
2023/05/02 10:44:56;;;;;;;2.30;1.50;;;;;;;22.76;23.28;100073.55;105852;1253;62256;-76
2023/05/02 10:47:25;;;;;;;4.70;1.80;;;;;;;22.86;23.63;100077.22;106004;1253;61155;-71
2023/05/02 10:50:01;;;;;;;9.00;1.90;;;;;;;22.76;23.12;100072.73;105993;1256;75765;-73
2023/05/02 10:52:37;;;;;;;4.50;2.40;;;;;;;22.50;22.96;100074.73;106155;1253;68864;-77
2023/05/02 10:55:17;;;;;;;9.10;1.70;;;;;;;20.97;24.47;100064.02;105962;1254;72896;-72
2023/05/02 10:57:57;;;;;;;6.80;1.70;;;;;;;20.96;25.04;100057.14;105984;1253;61395;-73
2023/05/02 11:00:25;;;;;;;5.50;2.20;;;;;;;21.13;25.32;100057.66;105880;1253;62364;-74
2023/05/02 11:02:52;;;;;;;3.20;1.10;;;;;;;21.35;25.32;100057.10;105938;1254;74038;-75
2023/05/02 11:05:21;;;;;;;4.60;1.40;;;;;;;21.28;24.71;100056.73;106060;1253;68927;-76
2023/05/02 11:07:47;;;;;;;11.50;2.00;;;;;;;21.24;25.10;100051.48;106085;1254;71738;-76
2023/05/02 11:10:17;;;;;;;8.50;2.20;;;;;;;21.51;24.77;100058.83;106111;1254;61307;-74
2023/05/02 11:12:48;;;;;;;6.70;1.80;;;;;;;21.64;25.12;100050.34;106128;1254;61253;-74
2023/05/02 11:15:21;;;;;;;1.80;1.50;;;;;;;21.26;24.61;100053.17;105932;1254;73737;-74
2023/05/02 11:18:00;;;;;;;6.30;2.10;;;;;;;21.58;24.27;100051.15;105980;1253;68887;-77
2023/05/02 11:20:27;;;;;;;2.90;1.60;;;;;;;22.72;23.55;100058.30;105885;1253;72019;-80
2023/05/02 11:22:55;;;;;;;12.40;2.20;;;;;;;21.79;23.87;100049.19;105904;1254;61264;-76
2023/05/02 11:25:36;;;;;;;3.20;1.60;;;;;;;21.03;25.26;100039.88;105933;1253;61347;-77